Time;durP1;ratioP1;P1;durP2;ratioP2;P2;SDS_P1;SDS_P2;PMS_P1;PMS_P2;Temp;Humidity;BMP_temperature;BMP_pressure;BME280_temperature;BME280_humidity;BME280_pressure;Samples;Min_cycle;Max_cycle;Signal;HPM_P1;HPM_P2
2022/09/22 00:02:20;;;;;;;1.90;1.63;;;;;;;9.17;92.52;97115.38;4908186;29;20243;-57
2022/09/22 00:04:47;;;;;;;1.83;1.70;;;;;;;9.08;92.10;97118.72;4915586;29;20248;-57
2022/09/22 00:07:13;;;;;;;2.23;1.50;;;;;;;9.11;94.26;97110.56;4929745;29;20239;-57
2022/09/22 00:09:41;;;;;;;1.80;1.70;;;;;;;9.07;93.23;97110.94;4928476;29;20232;-57
2022/09/22 00:12:12;;;;;;;1.70;1.60;;;;;;;9.02;94.12;97113.09;4927263;29;20212;-57
2022/09/22 00:14:39;;;;;;;2.47;1.63;;;;;;;9.03;94.83;97104.25;4911854;29;20248;-58
2022/09/22 00:17:05;;;;;;;2.70;1.90;;;;;;;8.99;94.48;97109.75;4908471;29;20305;-56
2022/09/22 00:19:35;;;;;;;2.50;1.97;;;;;;;8.96;94.24;97101.25;4907752;29;20267;-57
2022/09/22 00:22:02;;;;;;;4.23;1.80;;;;;;;8.95;94.71;97116.25;4907345;29;20300;-56
2022/09/22 00:24:32;;;;;;;2.03;1.87;;;;;;;8.92;93.55;97108.56;4908072;29;20224;-58
2022/09/22 00:26:59;;;;;;;1.50;1.40;;;;;;;8.94;94.52;97108.44;4907799;29;20292;-58
2022/09/22 00:29:30;;;;;;;2.10;2.00;;;;;;;8.95;92.50;97105.69;4907755;29;20216;-58
2022/09/22 00:31:57;;;;;;;2.30;1.80;;;;;;;8.89;94.46;97100.88;4916905;29;20283;-58
2022/09/22 00:34:26;;;;;;;1.73;1.50;;;;;;;8.82;94.75;97099.69;4923752;29;20208;-61
2022/09/22 00:36:54;;;;;;;2.13;1.93;;;;;;;8.81;95.29;97100.66;4922886;29;20204;-58
2022/09/22 00:39:21;;;;;;;1.80;1.67;;;;;;;8.87;96.14;97097.53;4928887;29;20235;-58
2022/09/22 00:41:51;;;;;;;2.83;1.63;;;;;;;8.74;94.92;97099.47;4924347;29;20219;-59
2022/09/22 00:44:33;;;;;;;3.87;2.10;;;;;;;8.85;94.70;97098.63;4916775;29;20224;-57
2022/09/22 00:47:05;;;;;;;2.60;1.80;;;;;;;8.80;96.43;97096.34;4908542;29;20216;-56
2022/09/22 00:49:37;;;;;;;1.93;1.73;;;;;;;8.77;96.49;97096.59;4908222;29;20295;-58
2022/09/22 00:52:04;;;;;;;3.20;1.83;;;;;;;8.73;96.39;97097.78;4908481;29;20204;-58
2022/09/22 00:54:33;;;;;;;2.27;1.67;;;;;;;8.76;96.85;97089.63;4908253;29;20234;-58
2022/09/22 00:57:06;;;;;;;2.80;1.67;;;;;;;8.78;96.02;97090.38;4908218;29;20216;-56
2022/09/22 00:59:35;;;;;;;2.03;1.70;;;;;;;8.71;95.77;97096.25;4910771;29;20270;-57
2022/09/22 01:02:02;;;;;;;1.83;1.73;;;;;;;8.68;96.22;97094.66;4908914;29;20212;-56
2022/09/22 01:04:29;;;;;;;3.20;1.90;;;;;;;8.61;96.78;97085.56;4908234;29;20235;-57
2022/09/22 01:06:57;;;;;;;2.30;2.10;;;;;;;8.61;97.01;97084.75;4908299;29;20220;-54
2022/09/22 01:09:25;;;;;;;2.20;2.00;;;;;;;8.55;96.35;97082.56;4907791;29;20714;-58
2022/09/22 01:11:52;;;;;;;1.93;1.83;;;;;;;8.52;97.01;97081.00;4906725;29;20303;-53
2022/09/22 01:14:25;;;;;;;2.80;2.20;;;;;;;8.56;96.91;97085.09;4907847;29;20220;-54
2022/09/22 01:17:04;;;;;;;3.37;2.33;;;;;;;8.51;96.35;97079.31;4907566;29;20323;-53
2022/09/22 01:20:05;;;;;;;2.57;2.10;;;;;;;8.56;94.82;97077.19;4907128;29;20307;-53
2022/09/22 01:22:46;;;;;;;4.10;2.20;;;;;;;8.48;96.96;97075.13;4907429;29;20195;-55
2022/09/22 01:25:29;;;;;;;4.77;2.43;;;;;;;8.42;97.60;97074.78;4908052;29;20208;-53
2022/09/22 01:28:16;;;;;;;2.13;2.00;;;;;;;8.34;98.36;97071.91;4906148;29;20601;-54
2022/09/22 01:30:48;;;;;;;2.23;2.13;;;;;;;8.38;97.96;97068.06;4907228;29;20229;-53
2022/09/22 01:33:22;;;;;;;2.53;2.30;;;;;;;8.37;98.57;97071.66;4908056;29;20200;-54
2022/09/22 01:35:58;;;;;;;2.30;1.97;;;;;;;8.31;98.54;97065.06;4908222;29;20200;-55
2022/09/22 01:38:31;;;;;;;3.00;2.00;;;;;;;8.31;98.12;97065.06;4908857;29;20294;-54
2022/09/22 01:41:00;;;;;;;3.40;2.10;;;;;;;8.30;99.45;97065.19;4907856;29;20214;-53
2022/09/22 01:43:37;;;;;;;3.43;1.90;;;;;;;8.20;98.00;97064.19;4910460;29;20292;-53
2022/09/22 01:46:09;;;;;;;1.97;1.87;;;;;;;8.23;96.46;97061.31;4909402;29;20298;-53
2022/09/22 01:48:37;;;;;;;2.60;2.40;;;;;;;8.19;99.37;97046.69;4906702;29;20221;-53
2022/09/22 01:51:09;;;;;;;2.30;2.10;;;;;;;8.13;98.58;97057.72;4906189;29;20200;-54
2022/09/22 01:53:39;;;;;;;4.67;2.30;;;;;;;8.12;99.68;97054.22;4906226;29;20235;-54
2022/09/22 01:56:08;;;;;;;2.40;2.30;;;;;;;8.17;97.01;97059.16;4906986;29;20209;-53
2022/09/22 01:58:37;;;;;;;2.40;2.03;;;;;;;8.15;99.96;97054.00;4905508;29;20285;-54
2022/09/22 02:01:08;;;;;;;2.50;2.30;;;;;;;8.09;99.74;97053.63;4906678;29;20211;-53
2022/09/22 02:03:38;;;;;;;2.70;2.00;;;;;;;8.05;99.67;97054.81;4906790;29;20303;-54
2022/09/22 02:06:08;;;;;;;2.57;2.37;;;;;;;8.02;98.06;97056.75;4906176;29;20236;-52
2022/09/22 02:08:38;;;;;;;2.50;2.30;;;;;;;8.12;100.00;97056.03;4906359;29;20303;-55
2022/09/22 02:11:09;;;;;;;2.40;2.00;;;;;;;8.13;97.18;97053.28;4906756;29;20204;-54
2022/09/22 02:13:36;;;;;;;3.33;2.20;;;;;;;8.11;100.00;97049.94;4906198;29;20196;-54
2022/09/22 02:16:03;;;;;;;2.00;1.90;;;;;;;8.05;99.46;97054.81;4905861;29;20235;-54
2022/09/22 02:18:36;;;;;;;2.30;2.20;;;;;;;8.06;99.71;97057.34;4905530;29;20204;-53
2022/09/22 02:21:03;;;;;;;3.10;2.17;;;;;;;8.07;98.45;97064.31;4905686;29;20334;-54
2022/09/22 02:23:31;;;;;;;2.20;2.00;;;;;;;8.06;99.88;97059.13;4905602;29;20295;-51
2022/09/22 02:25:58;;;;;;;2.80;2.37;;;;;;;7.99;100.00;97056.97;4906044;29;20220;-54
2022/09/22 02:28:25;;;;;;;4.67;2.30;;;;;;;8.00;100.00;97058.66;4905763;29;20831;-52
2022/09/22 02:30:55;;;;;;;2.70;2.33;;;;;;;8.02;100.00;97066.44;4905335;29;20207;-55
2022/09/22 02:33:22;;;;;;;5.47;2.53;;;;;;;8.02;100.00;97058.53;4905275;29;20212;-54
2022/09/22 02:35:56;;;;;;;3.17;2.23;;;;;;;8.06;100.00;97057.34;4904976;29;20738;-54
2022/09/22 02:38:28;;;;;;;3.97;2.40;;;;;;;8.11;100.00;97054.38;4909183;29;20291;-53
2022/09/22 02:41:01;;;;;;;3.00;2.70;;;;;;;8.01;99.17;97049.78;4919025;29;20236;-54
2022/09/22 02:43:32;;;;;;;4.03;2.73;;;;;;;7.97;98.45;97053.59;4913424;29;20507;-54
2022/09/22 02:46:05;;;;;;;2.90;2.60;;;;;;;7.99;100.00;97050.88;4912868;29;20291;-53
2022/09/22 02:48:37;;;;;;;2.50;2.37;;;;;;;8.04;100.00;97047.91;4912376;29;20855;-52
2022/09/22 02:51:06;;;;;;;2.50;2.30;;;;;;;7.96;99.31;97041.41;4913095;29;20199;-55
2022/09/22 02:53:33;;;;;;;3.07;2.70;;;;;;;7.97;100.00;97043.06;4912180;29;20244;-52
2022/09/22 02:56:00;;;;;;;3.13;2.77;;;;;;;7.89;100.00;97040.22;4911350;29;20291;-54
2022/09/22 02:58:27;;;;;;;2.90;2.57;;;;;;;7.90;98.67;97051.59;4913343;29;20666;-53
2022/09/22 03:00:53;;;;;;;2.67;2.47;;;;;;;7.85;100.00;97048.44;4911433;29;20211;-54
2022/09/22 03:03:21;;;;;;;2.43;2.23;;;;;;;7.84;100.00;97052.88;4908825;29;20303;-53
2022/09/22 03:05:47;;;;;;;3.27;2.70;;;;;;;7.78;100.00;97055.13;4909364;29;20296;-54
2022/09/22 03:08:15;;;;;;;3.10;2.60;;;;;;;7.83;100.00;97051.19;4909213;29;20327;-53
2022/09/22 03:10:42;;;;;;;3.27;2.50;;;;;;;7.78;100.00;97048.06;4909580;29;20212;-54
2022/09/22 03:13:09;;;;;;;4.20;2.60;;;;;;;7.84;100.00;97047.59;4911026;29;21127;-53
2022/09/22 03:15:39;;;;;;;2.70;2.53;;;;;;;7.85;100.00;97049.28;4910588;29;20308;-53
2022/09/22 03:18:05;;;;;;;3.83;2.93;;;;;;;7.86;100.00;97050.97;4910940;29;20630;-53
2022/09/22 03:20:32;;;;;;;3.07;2.87;;;;;;;7.80;100.00;97055.84;4909652;29;20356;-54
2022/09/22 03:22:58;;;;;;;2.80;2.60;;;;;;;7.81;100.00;97058.38;4912173;29;20303;-54
2022/09/22 03:25:26;;;;;;;2.93;2.63;;;;;;;7.79;100.00;97062.94;4909289;29;20295;-54
2022/09/22 03:27:53;;;;;;;3.00;2.70;;;;;;;7.82;100.00;97057.44;4909874;29;20242;-52
2022/09/22 03:30:20;;;;;;;3.53;3.10;;;;;;;7.82;100.00;97053.94;4910314;29;21441;-53
2022/09/22 03:32:46;;;;;;;3.20;3.00;;;;;;;7.84;100.00;97054.66;4910337;29;20580;-58
2022/09/22 03:35:13;;;;;;;3.27;2.83;;;;;;;7.84;100.00;97052.88;4910945;29;20208;-52
2022/09/22 03:37:40;;;;;;;2.90;2.70;;;;;;;7.86;100.00;97061.50;4908496;29;20220;-54
2022/09/22 03:40:07;;;;;;;3.90;2.87;;;;;;;7.82;100.00;97062.69;4908533;29;20211;-54
2022/09/22 03:42:35;;;;;;;2.90;2.70;;;;;;;7.78;100.00;97071.78;4908561;29;20212;-55
2022/09/22 03:45:03;;;;;;;4.00;3.33;;;;;;;7.75;100.00;97074.66;4907852;29;20267;-54
2022/09/22 03:47:29;;;;;;;2.97;2.70;;;;;;;7.61;100.00;97066.94;4907951;29;20304;-54
2022/09/22 03:49:56;;;;;;;3.20;2.90;;;;;;;7.64;100.00;97077.22;4907142;29;20323;-53
2022/09/22 03:52:23;;;;;;;3.70;3.20;;;;;;;7.60;100.00;97067.88;4907903;29;20694;-53
2022/09/22 03:54:51;;;;;;;3.10;2.80;;;;;;;7.60;100.00;97074.94;4907402;29;20204;-53
2022/09/22 03:57:18;;;;;;;3.93;3.27;;;;;;;7.59;100.00;97070.63;4908492;29;20574;-54
2022/09/22 03:59:46;;;;;;;3.00;2.80;;;;;;;7.51;100.00;97079.91;4907550;29;20275;-53
2022/09/22 04:02:12;;;;;;;3.50;3.30;;;;;;;7.47;100.00;97075.03;4908388;29;20224;-52
2022/09/22 04:04:39;;;;;;;4.10;3.03;;;;;;;7.48;100.00;97074.03;4907874;29;20303;-52
2022/09/22 04:07:06;;;;;;;3.00;2.80;;;;;;;7.42;100.00;97070.09;4907281;29;20239;-53
2022/09/22 04:09:32;;;;;;;3.43;3.20;;;;;;;7.48;100.00;97077.53;4907296;29;20761;-54
2022/09/22 04:11:59;;;;;;;3.23;2.93;;;;;;;7.40;100.00;97076.44;4907662;29;20208;-54
2022/09/22 04:14:26;;;;;;;3.53;3.30;;;;;;;7.46;100.00;97073.34;4906480;29;20592;-54
2022/09/22 04:16:54;;;;;;;3.80;2.93;;;;;;;7.42;100.00;97079.78;4907625;29;20348;-53
2022/09/22 04:19:21;;;;;;;3.20;3.00;;;;;;;7.46;100.00;97068.06;4906874;29;20791;-54
2022/09/22 04:21:48;;;;;;;4.40;3.00;;;;;;;7.40;100.00;97074.59;4906603;29;20232;-51
2022/09/22 04:24:16;;;;;;;3.83;3.47;;;;;;;7.43;100.00;97081.47;4908545;29;20298;-51
2022/09/22 04:26:43;;;;;;;7.17;5.30;;;;;;;7.48;100.00;97077.53;4908413;29;20315;-52
2022/09/22 04:29:09;;;;;;;5.00;4.60;;;;;;;7.42;100.00;97080.63;4906520;29;20319;-51
2022/09/22 04:31:36;;;;;;;4.03;3.30;;;;;;;7.42;100.00;97074.50;4907131;29;20300;-52
2022/09/22 04:34:04;;;;;;;3.63;3.37;;;;;;;7.40;100.00;97079.06;4906948;29;20253;-52
2022/09/22 04:36:30;;;;;;;6.30;3.90;;;;;;;7.45;100.00;97072.50;4906819;29;20209;-53
2022/09/22 04:39:01;;;;;;;4.03;3.57;;;;;;;7.44;100.00;97078.69;4907144;29;20296;-52
2022/09/22 04:41:28;;;;;;;4.10;3.40;;;;;;;7.33;100.00;97083.09;4906737;29;20209;-51
2022/09/22 04:43:55;;;;;;;3.43;3.10;;;;;;;7.24;100.00;97081.13;4905497;29;20339;-53
2022/09/22 04:46:21;;;;;;;3.43;3.10;;;;;;;7.38;100.00;97083.56;4906259;29;20302;-52
2022/09/22 04:48:48;;;;;;;3.63;3.23;;;;;;;7.38;100.00;97083.56;4906070;29;20236;-52
2022/09/22 04:51:16;;;;;;;3.73;3.43;;;;;;;7.34;100.00;97080.31;4907158;29;20215;-52
2022/09/22 04:53:43;;;;;;;4.40;3.53;;;;;;;7.25;100.00;97082.81;4906557;29;20220;-52
2022/09/22 04:56:09;;;;;;;4.60;3.60;;;;;;;7.19;100.00;97078.81;4909357;29;20276;-52
2022/09/22 04:58:36;;;;;;;4.07;3.67;;;;;;;7.16;100.00;97081.66;4913368;29;20215;-52
2022/09/22 05:01:03;;;;;;;4.77;3.17;;;;;;;7.35;100.00;97084.66;4910222;29;20235;-52
2022/09/22 05:03:30;;;;;;;5.60;3.57;;;;;;;7.18;100.00;97089.47;4906844;29;20217;-51
2022/09/22 05:05:56;;;;;;;4.30;3.13;;;;;;;7.14;100.00;97096.72;4906824;29;20303;-54
2022/09/22 05:08:25;;;;;;;4.33;3.60;;;;;;;7.06;100.00;97098.22;4907054;29;20250;-53
2022/09/22 05:10:52;;;;;;;3.60;3.30;;;;;;;6.94;100.00;97099.97;4907449;29;20223;-58
2022/09/22 05:13:19;;;;;;;3.53;3.23;;;;;;;6.90;100.00;97101.97;4906663;29;20232;-54
2022/09/22 05:15:46;;;;;;;6.20;3.43;;;;;;;6.90;100.00;97101.97;4909404;29;20204;-54
2022/09/22 05:18:13;;;;;;;5.70;3.50;;;;;;;6.91;100.00;97097.53;4905313;29;20204;-54
2022/09/22 05:20:40;;;;;;;3.30;3.03;;;;;;;6.90;100.00;97094.09;4908737;29;20296;-54
2022/09/22 05:23:06;;;;;;;3.17;2.93;;;;;;;6.95;100.00;97099.00;4907630;29;20251;-54
2022/09/22 05:25:35;;;;;;;7.90;3.80;;;;;;;6.90;100.00;97104.59;4906398;29;20246;-54
2022/09/22 05:28:02;;;;;;;4.33;3.57;;;;;;;6.88;100.00;97103.00;4905672;29;20216;-54
2022/09/22 05:30:28;;;;;;;6.13;3.50;;;;;;;6.87;100.00;97107.41;4905761;29;20247;-54
2022/09/22 05:32:55;;;;;;;4.87;3.50;;;;;;;6.87;100.00;97107.41;4906810;29;20204;-53
2022/09/22 05:35:23;;;;;;;3.83;3.50;;;;;;;6.86;100.00;97108.41;4906044;29;20544;-54
2022/09/22 05:37:51;;;;;;;4.07;3.53;;;;;;;6.81;100.00;97102.59;4906521;29;20303;-53
2022/09/22 05:40:19;;;;;;;3.90;3.60;;;;;;;6.82;100.00;97114.81;4905846;29;20200;-54
2022/09/22 05:42:48;;;;;;;4.40;3.50;;;;;;;6.88;100.00;97119.63;4905796;29;20307;-54
2022/09/22 05:45:15;;;;;;;3.53;3.30;;;;;;;6.90;100.00;97101.97;4905023;29;20231;-53
2022/09/22 05:47:42;;;;;;;3.70;3.40;;;;;;;7.01;100.00;97109.91;4906056;29;20299;-54
2022/09/22 05:50:10;;;;;;;4.30;3.67;;;;;;;7.00;100.00;97113.50;4905038;29;20236;-54
2022/09/22 05:52:37;;;;;;;9.30;3.97;;;;;;;7.09;100.00;97112.00;4905538;29;20212;-54
2022/09/22 05:55:04;;;;;;;4.57;4.17;;;;;;;7.14;100.00;97112.50;4905804;29;20597;-53
2022/09/22 05:57:31;;;;;;;5.13;4.20;;;;;;;7.22;100.00;97112.81;4905457;29;20205;-54
2022/09/22 05:59:59;;;;;;;5.40;3.70;;;;;;;7.32;100.00;97112.97;4905347;29;20288;-53
2022/09/22 06:02:26;;;;;;;4.00;3.63;;;;;;;7.42;100.00;97103.44;4905369;29;20299;-54
2022/09/22 06:04:53;;;;;;;5.13;3.70;;;;;;;7.43;100.00;97100.72;4904835;29;20268;-51
2022/09/22 06:07:20;;;;;;;4.63;4.23;;;;;;;7.49;100.00;97102.06;4905716;29;20300;-54
2022/09/22 06:09:47;;;;;;;4.77;4.00;;;;;;;7.74;100.00;97104.53;4904685;29;20232;-54
2022/09/22 06:12:14;;;;;;;4.30;3.90;;;;;;;7.92;100.00;97103.16;4905243;29;20223;-54
2022/09/22 06:14:40;;;;;;;5.13;4.00;;;;;;;7.99;100.00;97099.13;4904941;29;20284;-54
2022/09/22 06:17:10;;;;;;;4.93;4.43;;;;;;;8.15;100.00;97103.22;4904994;29;20839;-54
2022/09/22 06:19:37;;;;;;;4.53;4.10;;;;;;;8.34;100.00;97106.16;4905381;29;20406;-54
2022/09/22 06:22:04;;;;;;;4.80;4.40;;;;;;;8.53;100.00;97106.41;4905429;29;20294;-53
2022/09/22 06:24:30;;;;;;;4.60;3.80;;;;;;;8.87;99.08;97101.97;4905584;29;20204;-52
2022/09/22 06:26:57;;;;;;;4.30;4.00;;;;;;;9.80;94.65;97109.28;4906317;29;20252;-54
2022/09/22 06:29:23;;;;;;;5.27;4.27;;;;;;;10.63;89.22;97104.00;4905345;29;20651;-53
2022/09/22 06:31:50;;;;;;;4.57;4.03;;;;;;;11.44;81.33;97105.66;4906417;29;20291;-52
2022/09/22 06:34:18;;;;;;;3.80;3.40;;;;;;;11.84;79.25;97103.75;4905419;29;20295;-54
2022/09/22 06:36:45;;;;;;;3.40;3.20;;;;;;;12.45;75.78;97101.59;4905809;29;20208;-53
2022/09/22 06:39:13;;;;;;;5.33;3.47;;;;;;;12.86;73.07;97102.97;4905328;29;20239;-53
2022/09/22 06:41:39;;;;;;;3.77;3.47;;;;;;;13.12;73.00;97102.34;4906369;29;20208;-54
2022/09/22 06:44:07;;;;;;;3.90;3.60;;;;;;;13.11;72.04;97104.16;4905618;29;20232;-54
2022/09/22 06:46:34;;;;;;;3.80;3.50;;;;;;;13.30;70.26;97111.19;4905882;29;20200;-53
2022/09/22 06:49:01;;;;;;;5.17;3.33;;;;;;;13.28;70.26;97102.56;4905660;29;20224;-53
2022/09/22 06:51:31;;;;;;;4.87;3.60;;;;;;;13.38;70.75;97106.00;4904826;29;20209;-54
2022/09/22 06:53:59;;;;;;;3.67;3.30;;;;;;;12.70;71.57;97097.47;4905417;29;20212;-54
2022/09/22 06:56:26;;;;;;;4.40;3.57;;;;;;;12.73;72.76;97099.84;4907625;29;20229;-54
2022/09/22 06:58:54;;;;;;;5.37;3.67;;;;;;;12.56;70.86;97091.78;4910359;29;20684;-54
2022/09/22 07:01:22;;;;;;;4.57;3.90;;;;;;;11.90;75.40;97092.59;4906578;29;20206;-54
2022/09/22 07:03:48;;;;;;;5.03;3.70;;;;;;;11.61;78.34;97102.34;4904879;29;20646;-54
2022/09/22 07:06:16;;;;;;;6.10;3.90;;;;;;;11.43;77.71;97101.34;4905861;29;20299;-53
2022/09/22 07:08:45;;;;;;;4.13;3.73;;;;;;;11.17;77.58;97097.50;4904743;29;20295;-54
2022/09/22 07:11:12;;;;;;;4.53;4.13;;;;;;;11.18;81.53;97101.84;4905623;29;20232;-53
2022/09/22 07:13:41;;;;;;;4.97;4.20;;;;;;;10.85;79.56;97103.81;4906419;29;20569;-54
2022/09/22 07:16:09;;;;;;;4.23;3.83;;;;;;;10.73;81.18;97094.31;4906530;29;21463;-53
2022/09/22 07:18:40;;;;;;;4.80;3.80;;;;;;;10.78;83.74;97096.53;4907869;29;20272;-54
2022/09/22 07:21:08;;;;;;;4.47;4.07;;;;;;;10.49;83.71;97094.59;4906071;29;20219;-53
2022/09/22 07:23:35;;;;;;;4.43;4.00;;;;;;;10.42;84.09;97100.53;4905279;29;20211;-53
2022/09/22 07:26:04;;;;;;;5.37;4.00;;;;;;;10.26;84.88;97090.44;4906110;29;20208;-53
2022/09/22 07:28:32;;;;;;;4.73;3.63;;;;;;;10.32;86.55;97095.22;4917452;29;20199;-54
2022/09/22 07:31:04;;;;;;;4.23;3.90;;;;;;;10.38;86.27;97091.22;4916061;29;20352;-51
2022/09/22 07:33:31;;;;;;;4.40;4.00;;;;;;;10.46;84.48;97094.88;4908630;29;20211;-53
2022/09/22 07:36:03;;;;;;;4.43;4.03;;;;;;;10.43;84.97;97089.00;4908676;29;20697;-52
2022/09/22 07:38:32;;;;;;;6.77;4.40;;;;;;;10.50;85.09;97095.44;4908230;29;20204;-54
2022/09/22 07:40:59;;;;;;;13.40;4.80;;;;;;;10.56;85.36;97108.13;4908573;29;20239;-54
2022/09/22 07:43:27;;;;;;;5.67;4.47;;;;;;;10.48;85.32;97100.03;4907814;29;20208;-54
2022/09/22 07:45:56;;;;;;;6.63;4.20;;;;;;;10.57;85.39;97093.09;4908327;29;20203;-53
2022/09/22 07:48:36;;;;;;;4.63;4.23;;;;;;;10.62;86.69;97102.34;4908570;29;20217;-53
2022/09/22 07:51:04;;;;;;;4.90;4.47;;;;;;;10.66;85.98;97105.56;4907477;29;20216;-53
2022/09/22 07:53:31;;;;;;;5.17;4.27;;;;;;;10.57;85.46;97098.41;4907635;29;20637;-53
2022/09/22 07:56:02;;;;;;;4.80;4.40;;;;;;;10.64;86.42;97104.84;4907927;29;20660;-54
2022/09/22 07:58:30;;;;;;;4.93;4.50;;;;;;;10.62;85.42;97101.50;4907782;29;21378;-54
2022/09/22 08:00:57;;;;;;;5.00;4.60;;;;;;;10.63;85.75;97100.53;4908451;29;20204;-54
2022/09/22 08:03:24;;;;;;;4.97;4.47;;;;;;;10.62;85.63;97101.50;4907722;29;20226;-53
2022/09/22 08:05:52;;;;;;;4.27;3.87;;;;;;;10.74;86.53;97101.25;4908190;29;20303;-54
2022/09/22 08:08:19;;;;;;;4.60;4.20;;;;;;;10.82;86.78;97104.09;4908069;29;20283;-54
2022/09/22 08:10:46;;;;;;;5.20;4.70;;;;;;;10.84;86.58;97093.38;4909212;29;20299;-54
2022/09/22 08:13:12;;;;;;;4.77;4.37;;;;;;;10.98;87.12;97095.66;4910475;29;20303;-54
2022/09/22 08:15:41;;;;;;;5.80;5.00;;;;;;;11.08;86.53;97099.16;4909233;29;20292;-52
2022/09/22 08:18:08;;;;;;;5.23;4.70;;;;;;;11.10;86.47;97106.97;4908435;29;20208;-54
2022/09/22 08:20:34;;;;;;;7.00;4.83;;;;;;;11.22;85.31;97100.59;4907890;29;20311;-54
2022/09/22 08:23:03;;;;;;;6.80;4.93;;;;;;;11.17;84.21;97097.50;4908590;29;20603;-53
2022/09/22 08:25:30;;;;;;;7.13;4.70;;;;;;;11.21;85.26;97090.97;4908672;29;20220;-54
2022/09/22 08:27:57;;;;;;;4.73;4.33;;;;;;;11.23;86.11;97087.19;4907292;29;20216;-53
2022/09/22 08:30:24;;;;;;;4.73;4.33;;;;;;;11.33;84.88;97084.59;4907088;29;20703;-52
2022/09/22 08:32:52;;;;;;;5.67;5.13;;;;;;;11.38;84.34;97080.56;4907556;29;20215;-54
2022/09/22 08:35:19;;;;;;;5.43;4.80;;;;;;;11.48;84.47;97076.09;4908148;29;20304;-53
2022/09/22 08:37:49;;;;;;;5.10;4.60;;;;;;;11.47;82.98;97084.19;4906723;29;20315;-53
2022/09/22 08:40:22;;;;;;;5.53;4.57;;;;;;;11.48;82.45;97081.38;4907586;29;20223;-52
2022/09/22 08:42:49;;;;;;;5.10;4.60;;;;;;;11.61;82.50;97075.00;4926330;29;20205;-53
2022/09/22 08:45:26;;;;;;;6.53;5.20;;;;;;;11.71;83.26;97076.72;4923256;29;20326;-53
2022/09/22 08:53:34;;;;;;;7.27;5.33;;;;;;;12.11;81.78;97079.19;4929425;29;20196;-54
2022/09/22 08:56:05;;;;;;;5.30;4.80;;;;;;;12.31;80.82;97074.69;4907464;29;20224;-52
2022/09/22 08:58:42;;;;;;;5.10;4.57;;;;;;;12.50;80.69;97072.00;4906904;29;20714;-53
2022/09/22 09:01:21;;;;;;;5.57;5.07;;;;;;;12.61;79.70;97077.09;4907435;29;20526;-53
2022/09/22 09:03:57;;;;;;;5.87;4.80;;;;;;;12.95;77.13;97083.53;4907547;29;20711;-53
2022/09/22 09:06:31;;;;;;;5.07;4.57;;;;;;;13.17;79.00;97081.50;4908361;29;20208;-53
2022/09/22 09:09:27;;;;;;;5.63;5.13;;;;;;;13.23;77.03;97081.75;4907073;29;20649;-53
2022/09/22 09:12:25;;;;;;;6.03;4.40;;;;;;;13.19;75.14;97079.53;4907385;29;20220;-53
2022/09/22 09:15:15;;;;;;;5.23;4.80;;;;;;;13.33;76.40;97079.88;4901403;29;20295;-54
2022/09/22 09:17:42;;;;;;;5.20;4.70;;;;;;;13.85;76.59;97082.72;4907423;29;20205;-53
2022/09/22 09:20:16;;;;;;;5.47;4.63;;;;;;;14.25;75.21;97087.53;4907272;29;20224;-54
2022/09/22 09:22:47;;;;;;;5.47;4.97;;;;;;;14.33;70.47;97082.28;4906653;29;20207;-53
2022/09/22 09:25:19;;;;;;;6.80;4.80;;;;;;;14.58;72.39;97078.81;4906587;29;20212;-53
2022/09/22 09:27:48;;;;;;;5.43;4.43;;;;;;;15.10;69.35;97070.75;4906631;29;20204;-53
2022/09/22 09:30:16;;;;;;;4.90;4.43;;;;;;;15.34;69.09;97077.00;4906287;29;20503;-53
2022/09/22 09:32:47;;;;;;;5.40;4.87;;;;;;;15.56;67.10;97072.91;4906435;29;20199;-53
2022/09/22 09:35:16;;;;;;;4.50;4.07;;;;;;;15.86;66.76;97072.31;4906225;29;20203;-53
2022/09/22 09:37:44;;;;;;;6.28;4.68;;;;;;;16.01;65.82;97069.81;4906323;29;20208;-53
2022/09/22 09:40:14;;;;;;;5.18;4.68;;;;;;;16.29;64.16;97067.66;4905792;29;20220;-53
2022/09/22 09:42:42;;;;;;;5.93;4.38;;;;;;;16.48;63.97;97069.09;4906564;29;20288;-54
2022/09/22 09:45:12;;;;;;;4.97;4.43;;;;;;;16.33;62.72;97066.31;4906206;29;20227;-53
2022/09/22 09:47:46;;;;;;;5.40;4.90;;;;;;;16.52;64.78;97065.94;4905478;29;20634;-53
2022/09/22 09:50:15;;;;;;;5.60;5.10;;;;;;;16.27;62.72;97062.47;4905976;29;20216;-54
2022/09/22 09:52:42;;;;;;;5.25;4.75;;;;;;;16.71;65.32;97062.94;4906029;29;20300;-54
2022/09/22 09:55:20;;;;;;;6.97;5.07;;;;;;;16.46;63.57;97058.63;4905824;29;20606;-54
2022/09/22 09:58:06;;;;;;;5.50;4.72;;;;;;;16.70;64.35;97057.75;4906518;29;20310;-54
2022/09/22 10:00:33;;;;;;;5.20;4.55;;;;;;;17.10;63.93;97062.13;4905689;29;20720;-53
2022/09/22 10:03:05;;;;;;;4.88;4.50;;;;;;;17.04;60.85;97046.81;4906667;29;20701;-54
2022/09/22 10:05:36;;;;;;;6.30;4.68;;;;;;;17.26;61.00;97054.03;4906229;29;20210;-55
2022/09/22 10:08:15;;;;;;;5.60;5.03;;;;;;;17.13;61.32;97040.41;4906243;29;20208;-53
2022/09/22 10:10:41;;;;;;;5.13;4.72;;;;;;;17.49;61.84;97038.88;4906311;29;20251;-53
2022/09/22 10:13:22;;;;;;;5.10;4.55;;;;;;;17.45;59.71;97040.25;4906415;29;20295;-54
2022/09/22 10:16:19;;;;;;;5.57;4.40;;;;;;;17.59;60.34;97031.50;4906181;29;20693;-54
2022/09/22 10:18:46;;;;;;;8.38;5.22;;;;;;;17.42;60.22;97030.75;4906247;29;20221;-53
2022/09/22 10:21:16;;;;;;;8.05;5.10;;;;;;;17.63;60.85;97032.81;4906453;29;20649;-52
2022/09/22 10:23:43;;;;;;;6.50;4.90;;;;;;;17.84;60.36;97030.31;4906266;29;20312;-53
2022/09/22 10:26:19;;;;;;;4.90;4.50;;;;;;;17.87;60.26;97024.63;4906347;29;20220;-54
2022/09/22 10:28:49;;;;;;;5.22;4.82;;;;;;;17.75;59.52;97025.19;4906915;29;20206;-55
2022/09/22 10:31:21;;;;;;;7.10;4.88;;;;;;;17.59;58.38;97034.19;4907496;29;20281;-53
2022/09/22 10:33:54;;;;;;;5.72;5.13;;;;;;;18.02;58.90;97024.66;4906912;29;20298;-54
2022/09/22 10:36:24;;;;;;;5.40;4.78;;;;;;;17.79;59.12;97027.34;4906790;29;20214;-54
2022/09/22 10:38:52;;;;;;;5.13;4.60;;;;;;;17.34;59.25;97016.56;4907303;29;20208;-53
2022/09/22 10:41:20;;;;;;;4.57;4.20;;;;;;;17.39;58.18;97031.06;4907405;29;20586;-53
2022/09/22 10:43:49;;;;;;;3.95;3.65;;;;;;;18.00;60.45;97023.16;4908216;29;20244;-53
2022/09/22 10:46:31;;;;;;;5.10;4.07;;;;;;;18.29;57.73;97009.84;4906656;29;20726;-54
2022/09/22 10:49:06;;;;;;;5.90;5.30;;;;;;;18.37;58.95;97009.78;4907624;29;20204;-52
2022/09/22 10:51:55;;;;;;;5.05;4.65;;;;;;;17.99;58.20;97011.66;4906292;29;20216;-54
2022/09/22 10:54:40;;;;;;;5.40;4.88;;;;;;;18.30;58.31;97014.19;4905432;29;20660;-54
2022/09/22 10:57:17;;;;;;;5.60;4.63;;;;;;;18.61;58.59;97006.88;4906059;29;20219;-53
2022/09/22 11:00:01;;;;;;;5.15;4.57;;;;;;;18.70;56.67;97013.00;4907446;29;20203;-53
2022/09/22 11:03:02;;;;;;;5.63;5.13;;;;;;;18.26;57.96;97010.22;4910624;29;20298;-53
2022/09/22 11:14:14;;;;;;;4.85;4.45;;;;;;;18.93;54.33;97005.66;4909794;29;20344;-53
2022/09/22 11:16:59;;;;;;;5.97;4.53;;;;;;;18.59;54.46;97000.88;4909601;29;20282;-53
2022/09/22 11:19:37;;;;;;;9.15;4.88;;;;;;;18.50;55.69;97006.47;4909569;29;20291;-52
2022/09/22 11:22:17;;;;;;;5.50;5.00;;;;;;;18.50;54.48;97009.13;4909447;29;20538;-52
2022/09/22 11:24:57;;;;;;;5.00;4.60;;;;;;;17.95;58.43;97004.16;4909469;29;20291;-54
2022/09/22 11:27:35;;;;;;;4.60;4.20;;;;;;;18.28;56.69;97000.97;4913503;29;20208;-52
2022/09/22 11:30:19;;;;;;;5.03;4.10;;;;;;;18.42;55.84;97007.41;4913299;29;20200;-53
2022/09/22 11:33:15;;;;;;;4.30;3.90;;;;;;;18.76;57.09;97002.38;4910343;29;20248;-53
2022/09/22 11:36:00;;;;;;;6.22;4.20;;;;;;;18.33;54.32;97001.28;4908189;29;21463;-52
2022/09/22 11:38:40;;;;;;;4.50;4.20;;;;;;;18.20;54.81;97005.59;4907909;29;20218;-54
2022/09/22 11:41:20;;;;;;;4.32;4.00;;;;;;;18.58;58.10;96999.22;4908447;29;20552;-53
2022/09/22 11:44:00;;;;;;;4.45;4.05;;;;;;;18.70;57.80;96995.06;4908678;29;20243;-54
2022/09/22 11:46:37;;;;;;;3.90;3.60;;;;;;;18.81;55.14;96991.91;4908888;29;20303;-53
2022/09/22 11:49:10;;;;;;;4.32;3.92;;;;;;;18.70;54.60;96989.72;4908074;29;20295;-54
2022/09/22 11:51:56;;;;;;;4.05;3.50;;;;;;;18.47;57.26;96990.75;4907773;29;20669;-53
2022/09/22 11:54:46;;;;;;;3.67;3.45;;;;;;;18.78;54.04;96978.88;4908207;29;20287;-53
2022/09/22 11:57:18;;;;;;;4.90;3.50;;;;;;;18.49;54.85;96986.06;4907679;29;20220;-52
2022/09/22 11:59:50;;;;;;;3.97;3.58;;;;;;;18.44;56.30;96977.75;4908032;29;20200;-52
2022/09/22 12:02:25;;;;;;;3.70;3.40;;;;;;;18.72;57.50;96976.13;4907476;29;20308;-53
2022/09/22 12:04:55;;;;;;;3.67;3.30;;;;;;;18.64;55.61;96979.72;4907727;29;20212;-52